sensor_id;sensor_type;location;lat;lon;timestamp;P1;durP1;ratioP1;P2;durP2;ratioP2
11823;SDS011;5969;50.780;7.726;2023-03-31T00:02:23;6.35;;;1.45;;
11823;SDS011;5969;50.780;7.726;2023-03-31T00:04:53;3.25;;;1.15;;
11823;SDS011;5969;50.780;7.726;2023-03-31T00:07:23;3.38;;;1.10;;
11823;SDS011;5969;50.780;7.726;2023-03-31T00:09:52;2.17;;;1.05;;
11823;SDS011;5969;50.780;7.726;2023-03-31T00:12:21;5.03;;;1.35;;
11823;SDS011;5969;50.780;7.726;2023-03-31T00:14:48;7.53;;;1.38;;
11823;SDS011;5969;50.780;7.726;2023-03-31T00:17:15;2.58;;;1.35;;
11823;SDS011;5969;50.780;7.726;2023-03-31T00:19:42;1.88;;;0.90;;
11823;SDS011;5969;50.780;7.726;2023-03-31T00:22:09;1.88;;;1.10;;
11823;SDS011;5969;50.780;7.726;2023-03-31T00:24:36;4.13;;;1.50;;
11823;SDS011;5969;50.780;7.726;2023-03-31T00:27:04;4.53;;;1.20;;
11823;SDS011;5969;50.780;7.726;2023-03-31T00:29:31;3.05;;;1.10;;
11823;SDS011;5969;50.780;7.726;2023-03-31T00:31:59;2.92;;;1.20;;
11823;SDS011;5969;50.780;7.726;2023-03-31T00:34:26;7.55;;;1.40;;
11823;SDS011;5969;50.780;7.726;2023-03-31T00:36:54;6.28;;;1.20;;
11823;SDS011;5969;50.780;7.726;2023-03-31T00:39:27;4.25;;;1.15;;
11823;SDS011;5969;50.780;7.726;2023-03-31T00:41:57;2.65;;;1.27;;
11823;SDS011;5969;50.780;7.726;2023-03-31T00:44:28;3.63;;;1.20;;
11823;SDS011;5969;50.780;7.726;2023-03-31T00:46:58;3.88;;;1.60;;
11823;SDS011;5969;50.780;7.726;2023-03-31T00:49:31;3.97;;;1.02;;
11823;SDS011;5969;50.780;7.726;2023-03-31T00:52:00;3.35;;;1.00;;
11823;SDS011;5969;50.780;7.726;2023-03-31T00:54:30;3.88;;;1.33;;
11823;SDS011;5969;50.780;7.726;2023-03-31T00:56:58;2.83;;;1.10;;
11823;SDS011;5969;50.780;7.726;2023-03-31T00:59:29;3.85;;;1.10;;
11823;SDS011;5969;50.780;7.726;2023-03-31T01:01:59;1.45;;;1.20;;
11823;SDS011;5969;50.780;7.726;2023-03-31T01:04:29;6.10;;;1.60;;
11823;SDS011;5969;50.780;7.726;2023-03-31T01:07:01;5.13;;;1.30;;
11823;SDS011;5969;50.780;7.726;2023-03-31T01:09:33;2.72;;;1.10;;
11823;SDS011;5969;50.780;7.726;2023-03-31T01:12:11;3.40;;;1.30;;
11823;SDS011;5969;50.780;7.726;2023-03-31T01:14:42;4.95;;;1.30;;
11823;SDS011;5969;50.780;7.726;2023-03-31T01:17:09;5.47;;;1.38;;
11823;SDS011;5969;50.780;7.726;2023-03-31T01:19:41;4.88;;;1.52;;
11823;SDS011;5969;50.780;7.726;2023-03-31T01:28:12;3.00;;;1.10;;
11823;SDS011;5969;50.780;7.726;2023-03-31T01:30:59;2.42;;;1.17;;
11823;SDS011;5969;50.780;7.726;2023-03-31T01:33:57;2.60;;;1.17;;
11823;SDS011;5969;50.780;7.726;2023-03-31T01:42:45;3.75;;;1.40;;
11823;SDS011;5969;50.780;7.726;2023-03-31T01:45:20;3.95;;;1.50;;
11823;SDS011;5969;50.780;7.726;2023-03-31T01:47:55;4.75;;;1.58;;
11823;SDS011;5969;50.780;7.726;2023-03-31T01:50:25;3.65;;;1.60;;
11823;SDS011;5969;50.780;7.726;2023-03-31T01:52:56;4.63;;;1.73;;
11823;SDS011;5969;50.780;7.726;2023-03-31T01:55:28;4.25;;;1.65;;
11823;SDS011;5969;50.780;7.726;2023-03-31T01:58:04;7.07;;;2.88;;
11823;SDS011;5969;50.780;7.726;2023-03-31T02:00:37;8.57;;;2.35;;
11823;SDS011;5969;50.780;7.726;2023-03-31T02:03:08;5.32;;;2.10;;
11823;SDS011;5969;50.780;7.726;2023-03-31T02:05:42;7.20;;;2.08;;
11823;SDS011;5969;50.780;7.726;2023-03-31T02:08:13;6.18;;;1.92;;
11823;SDS011;5969;50.780;7.726;2023-03-31T02:10:44;6.90;;;1.63;;
11823;SDS011;5969;50.780;7.726;2023-03-31T02:13:14;6.40;;;1.90;;
11823;SDS011;5969;50.780;7.726;2023-03-31T02:15:43;5.72;;;2.15;;
11823;SDS011;5969;50.780;7.726;2023-03-31T02:18:14;7.80;;;2.20;;
11823;SDS011;5969;50.780;7.726;2023-03-31T02:20:45;3.95;;;1.77;;
11823;SDS011;5969;50.780;7.726;2023-03-31T02:23:14;6.45;;;2.33;;
11823;SDS011;5969;50.780;7.726;2023-03-31T02:25:46;4.90;;;1.70;;
11823;SDS011;5969;50.780;7.726;2023-03-31T02:28:17;6.22;;;1.88;;
11823;SDS011;5969;50.780;7.726;2023-03-31T02:30:56;8.73;;;1.80;;
11823;SDS011;5969;50.780;7.726;2023-03-31T02:33:31;5.13;;;1.98;;
11823;SDS011;5969;50.780;7.726;2023-03-31T02:35:58;8.02;;;1.88;;
11823;SDS011;5969;50.780;7.726;2023-03-31T02:38:25;3.97;;;2.25;;
11823;SDS011;5969;50.780;7.726;2023-03-31T02:40:58;3.35;;;1.63;;
11823;SDS011;5969;50.780;7.726;2023-03-31T02:43:27;4.00;;;1.73;;
11823;SDS011;5969;50.780;7.726;2023-03-31T02:45:54;6.55;;;2.20;;
11823;SDS011;5969;50.780;7.726;2023-03-31T02:48:22;6.30;;;2.42;;
11823;SDS011;5969;50.780;7.726;2023-03-31T02:51:00;6.35;;;2.13;;
11823;SDS011;5969;50.780;7.726;2023-03-31T02:53:46;6.97;;;1.95;;
11823;SDS011;5969;50.780;7.726;2023-03-31T02:56:27;6.97;;;2.08;;
11823;SDS011;5969;50.780;7.726;2023-03-31T02:59:22;6.88;;;2.05;;
11823;SDS011;5969;50.780;7.726;2023-03-31T03:02:03;7.53;;;2.00;;
11823;SDS011;5969;50.780;7.726;2023-03-31T03:04:37;6.45;;;1.80;;
11823;SDS011;5969;50.780;7.726;2023-03-31T03:07:35;3.25;;;1.73;;
11823;SDS011;5969;50.780;7.726;2023-03-31T03:10:13;4.63;;;1.70;;
11823;SDS011;5969;50.780;7.726;2023-03-31T03:12:47;8.57;;;2.35;;
11823;SDS011;5969;50.780;7.726;2023-03-31T03:15:24;4.53;;;1.92;;
11823;SDS011;5969;50.780;7.726;2023-03-31T03:17:55;6.72;;;1.77;;
11823;SDS011;5969;50.780;7.726;2023-03-31T03:20:26;7.80;;;2.15;;
11823;SDS011;5969;50.780;7.726;2023-03-31T03:22:53;7.53;;;1.85;;
11823;SDS011;5969;50.780;7.726;2023-03-31T03:25:20;6.75;;;2.22;;
11823;SDS011;5969;50.780;7.726;2023-03-31T03:27:48;8.10;;;2.20;;
11823;SDS011;5969;50.780;7.726;2023-03-31T03:30:17;7.93;;;2.30;;
11823;SDS011;5969;50.780;7.726;2023-03-31T03:32:45;9.45;;;2.33;;
11823;SDS011;5969;50.780;7.726;2023-03-31T03:35:13;7.15;;;2.03;;
11823;SDS011;5969;50.780;7.726;2023-03-31T03:37:40;7.38;;;2.08;;
11823;SDS011;5969;50.780;7.726;2023-03-31T03:40:07;5.63;;;2.10;;
11823;SDS011;5969;50.780;7.726;2023-03-31T03:42:38;7.10;;;2.20;;
11823;SDS011;5969;50.780;7.726;2023-03-31T03:45:05;5.55;;;2.00;;
11823;SDS011;5969;50.780;7.726;2023-03-31T03:47:32;3.97;;;1.60;;
11823;SDS011;5969;50.780;7.726;2023-03-31T03:50:01;6.50;;;1.95;;
11823;SDS011;5969;50.780;7.726;2023-03-31T03:52:29;8.40;;;1.80;;
11823;SDS011;5969;50.780;7.726;2023-03-31T03:54:56;4.78;;;1.70;;
11823;SDS011;5969;50.780;7.726;2023-03-31T03:57:23;7.60;;;2.00;;
11823;SDS011;5969;50.780;7.726;2023-03-31T03:59:51;9.07;;;2.00;;
11823;SDS011;5969;50.780;7.726;2023-03-31T04:02:17;5.18;;;1.92;;
11823;SDS011;5969;50.780;7.726;2023-03-31T04:04:46;6.93;;;1.80;;
11823;SDS011;5969;50.780;7.726;2023-03-31T04:07:15;8.40;;;2.10;;
11823;SDS011;5969;50.780;7.726;2023-03-31T04:09:42;6.50;;;2.00;;
11823;SDS011;5969;50.780;7.726;2023-03-31T04:12:09;5.35;;;2.35;;
11823;SDS011;5969;50.780;7.726;2023-03-31T04:14:37;5.30;;;1.80;;
11823;SDS011;5969;50.780;7.726;2023-03-31T04:17:04;9.02;;;2.40;;
11823;SDS011;5969;50.780;7.726;2023-03-31T04:19:31;7.90;;;2.30;;
11823;SDS011;5969;50.780;7.726;2023-03-31T04:21:58;7.50;;;1.90;;
11823;SDS011;5969;50.780;7.726;2023-03-31T04:24:30;8.40;;;2.00;;
11823;SDS011;5969;50.780;7.726;2023-03-31T04:26:58;11.02;;;1.90;;
11823;SDS011;5969;50.780;7.726;2023-03-31T04:29:26;9.93;;;2.22;;
11823;SDS011;5969;50.780;7.726;2023-03-31T04:31:57;6.55;;;2.10;;
11823;SDS011;5969;50.780;7.726;2023-03-31T04:34:25;7.18;;;2.20;;
11823;SDS011;5969;50.780;7.726;2023-03-31T04:36:59;7.40;;;2.15;;
11823;SDS011;5969;50.780;7.726;2023-03-31T04:39:29;7.70;;;2.03;;
11823;SDS011;5969;50.780;7.726;2023-03-31T04:41:57;8.40;;;2.22;;
11823;SDS011;5969;50.780;7.726;2023-03-31T04:44:26;6.72;;;2.60;;
11823;SDS011;5969;50.780;7.726;2023-03-31T04:46:54;9.02;;;2.15;;
11823;SDS011;5969;50.780;7.726;2023-03-31T04:49:22;7.32;;;2.28;;
11823;SDS011;5969;50.780;7.726;2023-03-31T04:51:49;7.40;;;2.15;;
11823;SDS011;5969;50.780;7.726;2023-03-31T04:54:17;8.38;;;2.60;;
11823;SDS011;5969;50.780;7.726;2023-03-31T04:56:46;7.85;;;2.28;;
11823;SDS011;5969;50.780;7.726;2023-03-31T04:59:13;11.15;;;2.47;;
11823;SDS011;5969;50.780;7.726;2023-03-31T05:01:40;5.63;;;2.20;;
11823;SDS011;5969;50.780;7.726;2023-03-31T05:04:09;10.30;;;3.17;;
11823;SDS011;5969;50.780;7.726;2023-03-31T05:06:36;10.50;;;2.33;;
11823;SDS011;5969;50.780;7.726;2023-03-31T05:09:03;7.75;;;2.58;;
11823;SDS011;5969;50.780;7.726;2023-03-31T05:11:30;8.60;;;2.22;;
11823;SDS011;5969;50.780;7.726;2023-03-31T05:13:58;8.80;;;2.25;;
11823;SDS011;5969;50.780;7.726;2023-03-31T05:16:28;4.93;;;1.90;;
11823;SDS011;5969;50.780;7.726;2023-03-31T05:18:55;6.50;;;2.40;;
11823;SDS011;5969;50.780;7.726;2023-03-31T05:21:22;5.75;;;2.28;;
11823;SDS011;5969;50.780;7.726;2023-03-31T05:23:50;7.45;;;1.80;;
11823;SDS011;5969;50.780;7.726;2023-03-31T05:26:18;10.38;;;2.47;;
11823;SDS011;5969;50.780;7.726;2023-03-31T05:28:49;8.93;;;2.22;;
11823;SDS011;5969;50.780;7.726;2023-03-31T05:31:17;8.20;;;2.30;;
11823;SDS011;5969;50.780;7.726;2023-03-31T05:33:44;7.18;;;1.95;;
11823;SDS011;5969;50.780;7.726;2023-03-31T05:36:16;5.57;;;2.00;;
11823;SDS011;5969;50.780;7.726;2023-03-31T05:38:43;6.07;;;1.75;;
11823;SDS011;5969;50.780;7.726;2023-03-31T05:41:11;7.63;;;2.30;;
11823;SDS011;5969;50.780;7.726;2023-03-31T05:43:40;6.13;;;2.08;;
11823;SDS011;5969;50.780;7.726;2023-03-31T05:46:10;6.35;;;1.67;;
11823;SDS011;5969;50.780;7.726;2023-03-31T05:48:39;6.65;;;1.80;;
11823;SDS011;5969;50.780;7.726;2023-03-31T05:51:06;8.20;;;2.42;;
11823;SDS011;5969;50.780;7.726;2023-03-31T05:53:36;2.55;;;1.23;;
11823;SDS011;5969;50.780;7.726;2023-03-31T05:56:04;8.57;;;1.85;;
11823;SDS011;5969;50.780;7.726;2023-03-31T06:01:09;3.55;;;1.45;;
11823;SDS011;5969;50.780;7.726;2023-03-31T06:03:54;8.35;;;1.80;;
11823;SDS011;5969;50.780;7.726;2023-03-31T06:06:22;6.57;;;2.50;;
11823;SDS011;5969;50.780;7.726;2023-03-31T06:08:56;5.22;;;1.40;;
11823;SDS011;5969;50.780;7.726;2023-03-31T06:11:28;5.75;;;1.85;;
11823;SDS011;5969;50.780;7.726;2023-03-31T06:13:58;4.90;;;1.48;;
11823;SDS011;5969;50.780;7.726;2023-03-31T06:16:26;3.75;;;1.58;;
11823;SDS011;5969;50.780;7.726;2023-03-31T06:19:01;3.63;;;1.30;;
11823;SDS011;5969;50.780;7.726;2023-03-31T06:21:28;7.50;;;1.95;;
11823;SDS011;5969;50.780;7.726;2023-03-31T06:23:56;4.22;;;1.40;;
11823;SDS011;5969;50.780;7.726;2023-03-31T06:26:24;6.93;;;1.58;;
11823;SDS011;5969;50.780;7.726;2023-03-31T06:28:56;5.43;;;1.35;;
11823;SDS011;5969;50.780;7.726;2023-03-31T06:31:32;3.92;;;1.23;;
11823;SDS011;5969;50.780;7.726;2023-03-31T06:34:07;5.13;;;1.40;;
11823;SDS011;5969;50.780;7.726;2023-03-31T06:36:34;4.22;;;1.20;;
11823;SDS011;5969;50.780;7.726;2023-03-31T06:39:01;4.13;;;1.40;;
11823;SDS011;5969;50.780;7.726;2023-03-31T06:41:28;3.78;;;1.48;;
11823;SDS011;5969;50.780;7.726;2023-03-31T06:43:54;3.63;;;1.30;;
11823;SDS011;5969;50.780;7.726;2023-03-31T06:46:23;6.13;;;1.67;;
11823;SDS011;5969;50.780;7.726;2023-03-31T06:48:50;4.32;;;1.33;;
11823;SDS011;5969;50.780;7.726;2023-03-31T06:51:19;2.95;;;1.10;;
11823;SDS011;5969;50.780;7.726;2023-03-31T06:53:46;3.17;;;1.20;;
11823;SDS011;5969;50.780;7.726;2023-03-31T06:56:13;3.65;;;1.20;;
11823;SDS011;5969;50.780;7.726;2023-03-31T06:58:40;5.20;;;1.40;;
11823;SDS011;5969;50.780;7.726;2023-03-31T07:01:12;4.15;;;1.30;;
11823;SDS011;5969;50.780;7.726;2023-03-31T07:03:40;4.35;;;1.40;;
11823;SDS011;5969;50.780;7.726;2023-03-31T07:06:24;1.75;;;1.20;;
11823;SDS011;5969;50.780;7.726;2023-03-31T07:09:24;2.60;;;1.30;;
11823;SDS011;5969;50.780;7.726;2023-03-31T07:11:51;2.88;;;1.42;;
11823;SDS011;5969;50.780;7.726;2023-03-31T07:14:37;4.43;;;1.42;;
11823;SDS011;5969;50.780;7.726;2023-03-31T07:17:04;4.00;;;1.20;;
11823;SDS011;5969;50.780;7.726;2023-03-31T07:19:30;4.15;;;1.60;;
11823;SDS011;5969;50.780;7.726;2023-03-31T07:21:57;2.85;;;1.40;;
11823;SDS011;5969;50.780;7.726;2023-03-31T07:24:33;5.05;;;1.42;;
11823;SDS011;5969;50.780;7.726;2023-03-31T07:27:00;2.92;;;1.60;;
11823;SDS011;5969;50.780;7.726;2023-03-31T07:29:26;5.50;;;1.55;;
11823;SDS011;5969;50.780;7.726;2023-03-31T07:31:53;3.20;;;1.73;;
11823;SDS011;5969;50.780;7.726;2023-03-31T07:34:20;5.72;;;1.90;;
11823;SDS011;5969;50.780;7.726;2023-03-31T07:36:47;2.50;;;1.40;;
11823;SDS011;5969;50.780;7.726;2023-03-31T07:39:15;4.03;;;1.98;;
11823;SDS011;5969;50.780;7.726;2023-03-31T07:41:44;1.98;;;1.33;;
11823;SDS011;5969;50.780;7.726;2023-03-31T07:44:11;3.03;;;1.60;;
11823;SDS011;5969;50.780;7.726;2023-03-31T07:46:38;3.95;;;1.40;;
11823;SDS011;5969;50.780;7.726;2023-03-31T07:49:05;4.07;;;1.40;;
11823;SDS011;5969;50.780;7.726;2023-03-31T07:51:33;3.28;;;1.20;;
11823;SDS011;5969;50.780;7.726;2023-03-31T07:54:00;2.63;;;1.73;;
11823;SDS011;5969;50.780;7.726;2023-03-31T07:56:27;2.97;;;1.25;;
11823;SDS011;5969;50.780;7.726;2023-03-31T07:58:55;2.25;;;1.50;;
11823;SDS011;5969;50.780;7.726;2023-03-31T08:01:22;1.45;;;1.08;;
11823;SDS011;5969;50.780;7.726;2023-03-31T08:03:54;3.80;;;1.35;;
11823;SDS011;5969;50.780;7.726;2023-03-31T08:06:21;1.90;;;1.23;;
11823;SDS011;5969;50.780;7.726;2023-03-31T08:08:50;2.50;;;1.20;;
11823;SDS011;5969;50.780;7.726;2023-03-31T08:11:17;4.78;;;1.55;;
11823;SDS011;5969;50.780;7.726;2023-03-31T08:13:53;1.83;;;0.95;;
11823;SDS011;5969;50.780;7.726;2023-03-31T08:16:23;2.05;;;1.20;;
11823;SDS011;5969;50.780;7.726;2023-03-31T08:18:55;3.85;;;1.50;;
11823;SDS011;5969;50.780;7.726;2023-03-31T08:21:21;2.83;;;1.30;;
11823;SDS011;5969;50.780;7.726;2023-03-31T08:23:48;1.38;;;0.98;;
11823;SDS011;5969;50.780;7.726;2023-03-31T08:26:18;2.53;;;1.08;;
11823;SDS011;5969;50.780;7.726;2023-03-31T08:29:02;3.83;;;1.33;;
11823;SDS011;5969;50.780;7.726;2023-03-31T08:31:30;2.63;;;1.20;;
11823;SDS011;5969;50.780;7.726;2023-03-31T08:33:57;2.95;;;1.40;;
11823;SDS011;5969;50.780;7.726;2023-03-31T08:36:25;2.58;;;1.33;;
11823;SDS011;5969;50.780;7.726;2023-03-31T08:38:52;2.30;;;1.23;;
11823;SDS011;5969;50.780;7.726;2023-03-31T08:41:25;3.47;;;1.10;;
11823;SDS011;5969;50.780;7.726;2023-03-31T08:43:59;1.77;;;1.00;;
11823;SDS011;5969;50.780;7.726;2023-03-31T08:46:31;2.28;;;1.30;;
11823;SDS011;5969;50.780;7.726;2023-03-31T08:49:00;4.03;;;1.55;;
11823;SDS011;5969;50.780;7.726;2023-03-31T08:51:30;3.58;;;1.40;;
11823;SDS011;5969;50.780;7.726;2023-03-31T08:54:02;3.15;;;1.05;;
11823;SDS011;5969;50.780;7.726;2023-03-31T08:56:33;2.63;;;1.42;;
11823;SDS011;5969;50.780;7.726;2023-03-31T08:59:12;3.53;;;1.15;;
11823;SDS011;5969;50.780;7.726;2023-03-31T09:01:48;3.08;;;1.27;;
11823;SDS011;5969;50.780;7.726;2023-03-31T09:04:24;2.03;;;1.20;;
11823;SDS011;5969;50.780;7.726;2023-03-31T09:07:16;3.05;;;1.33;;
11823;SDS011;5969;50.780;7.726;2023-03-31T09:09:54;1.70;;;1.20;;
11823;SDS011;5969;50.780;7.726;2023-03-31T09:12:29;2.47;;;1.30;;
11823;SDS011;5969;50.780;7.726;2023-03-31T09:15:01;3.70;;;1.20;;
11823;SDS011;5969;50.780;7.726;2023-03-31T09:17:37;3.88;;;1.50;;
11823;SDS011;5969;50.780;7.726;2023-03-31T09:20:10;4.43;;;1.50;;
11823;SDS011;5969;50.780;7.726;2023-03-31T09:22:42;5.00;;;1.42;;
11823;SDS011;5969;50.780;7.726;2023-03-31T09:25:13;4.00;;;1.33;;
11823;SDS011;5969;50.780;7.726;2023-03-31T09:27:44;1.90;;;1.10;;
11823;SDS011;5969;50.780;7.726;2023-03-31T09:30:13;5.10;;;1.33;;
11823;SDS011;5969;50.780;7.726;2023-03-31T09:32:45;3.30;;;1.50;;
11823;SDS011;5969;50.780;7.726;2023-03-31T09:35:16;3.25;;;1.60;;
11823;SDS011;5969;50.780;7.726;2023-03-31T09:37:48;4.15;;;1.35;;
11823;SDS011;5969;50.780;7.726;2023-03-31T09:40:18;2.63;;;1.50;;
11823;SDS011;5969;50.780;7.726;2023-03-31T09:43:00;4.07;;;1.65;;
11823;SDS011;5969;50.780;7.726;2023-03-31T09:45:29;4.55;;;1.35;;
11823;SDS011;5969;50.780;7.726;2023-03-31T09:48:00;2.10;;;1.10;;
11823;SDS011;5969;50.780;7.726;2023-03-31T09:50:30;3.13;;;1.20;;
11823;SDS011;5969;50.780;7.726;2023-03-31T09:53:02;2.08;;;1.15;;
11823;SDS011;5969;50.780;7.726;2023-03-31T09:55:32;4.75;;;1.40;;
11823;SDS011;5969;50.780;7.726;2023-03-31T09:58:11;4.93;;;1.05;;
11823;SDS011;5969;50.780;7.726;2023-03-31T10:00:39;4.85;;;1.38;;
11823;SDS011;5969;50.780;7.726;2023-03-31T10:03:15;3.45;;;1.40;;
11823;SDS011;5969;50.780;7.726;2023-03-31T10:05:47;3.40;;;1.33;;
11823;SDS011;5969;50.780;7.726;2023-03-31T10:08:20;3.58;;;1.17;;
11823;SDS011;5969;50.780;7.726;2023-03-31T10:10:53;4.90;;;1.40;;
11823;SDS011;5969;50.780;7.726;2023-03-31T10:13:21;3.60;;;1.20;;
11823;SDS011;5969;50.780;7.726;2023-03-31T10:15:54;4.10;;;1.52;;
11823;SDS011;5969;50.780;7.726;2023-03-31T10:18:32;3.63;;;1.35;;
11823;SDS011;5969;50.780;7.726;2023-03-31T10:21:02;2.70;;;1.10;;
11823;SDS011;5969;50.780;7.726;2023-03-31T10:23:31;3.20;;;1.13;;
11823;SDS011;5969;50.780;7.726;2023-03-31T10:26:00;3.28;;;1.38;;
11823;SDS011;5969;50.780;7.726;2023-03-31T10:28:30;3.65;;;1.35;;
11823;SDS011;5969;50.780;7.726;2023-03-31T10:31:00;4.00;;;1.35;;
11823;SDS011;5969;50.780;7.726;2023-03-31T10:33:28;4.72;;;1.70;;
11823;SDS011;5969;50.780;7.726;2023-03-31T10:36:17;5.82;;;1.10;;
11823;SDS011;5969;50.780;7.726;2023-03-31T10:38:48;7.15;;;1.60;;
11823;SDS011;5969;50.780;7.726;2023-03-31T10:41:18;3.65;;;1.20;;
11823;SDS011;5969;50.780;7.726;2023-03-31T10:43:47;3.13;;;1.42;;
11823;SDS011;5969;50.780;7.726;2023-03-31T10:46:16;4.57;;;1.30;;
11823;SDS011;5969;50.780;7.726;2023-03-31T10:48:53;4.10;;;1.30;;
11823;SDS011;5969;50.780;7.726;2023-03-31T10:51:21;4.95;;;1.50;;
11823;SDS011;5969;50.780;7.726;2023-03-31T10:53:56;2.95;;;1.33;;
11823;SDS011;5969;50.780;7.726;2023-03-31T10:56:33;3.55;;;1.40;;
11823;SDS011;5969;50.780;7.726;2023-03-31T10:59:08;4.97;;;1.45;;
11823;SDS011;5969;50.780;7.726;2023-03-31T11:02:00;3.83;;;1.30;;
11823;SDS011;5969;50.780;7.726;2023-03-31T11:04:49;4.43;;;1.30;;
11823;SDS011;5969;50.780;7.726;2023-03-31T11:07:31;4.30;;;1.58;;
11823;SDS011;5969;50.780;7.726;2023-03-31T11:10:20;3.85;;;1.33;;
11823;SDS011;5969;50.780;7.726;2023-03-31T11:12:59;3.00;;;1.27;;
11823;SDS011;5969;50.780;7.726;2023-03-31T11:15:34;5.47;;;1.60;;
11823;SDS011;5969;50.780;7.726;2023-03-31T11:18:27;3.80;;;1.20;;
11823;SDS011;5969;50.780;7.726;2023-03-31T11:21:05;5.88;;;1.70;;
11823;SDS011;5969;50.780;7.726;2023-03-31T11:23:46;2.92;;;1.60;;
11823;SDS011;5969;50.780;7.726;2023-03-31T11:26:23;5.00;;;1.58;;
11823;SDS011;5969;50.780;7.726;2023-03-31T11:28:57;4.85;;;1.88;;
11823;SDS011;5969;50.780;7.726;2023-03-31T11:31:32;4.60;;;1.30;;
11823;SDS011;5969;50.780;7.726;2023-03-31T11:34:15;4.75;;;1.73;;
11823;SDS011;5969;50.780;7.726;2023-03-31T11:37:09;7.38;;;1.80;;
11823;SDS011;5969;50.780;7.726;2023-03-31T11:39:50;5.72;;;1.60;;
11823;SDS011;5969;50.780;7.726;2023-03-31T11:42:25;6.38;;;1.63;;
11823;SDS011;5969;50.780;7.726;2023-03-31T11:44:59;4.70;;;1.75;;
11823;SDS011;5969;50.780;7.726;2023-03-31T11:47:38;4.30;;;1.85;;
11823;SDS011;5969;50.780;7.726;2023-03-31T11:50:24;5.25;;;1.67;;
11823;SDS011;5969;50.780;7.726;2023-03-31T11:53:12;5.88;;;1.60;;
11823;SDS011;5969;50.780;7.726;2023-03-31T11:55:45;2.65;;;1.20;;
11823;SDS011;5969;50.780;7.726;2023-03-31T11:58:32;2.95;;;1.40;;
11823;SDS011;5969;50.780;7.726;2023-03-31T12:01:06;5.43;;;1.83;;
11823;SDS011;5969;50.780;7.726;2023-03-31T12:03:40;5.40;;;1.85;;
11823;SDS011;5969;50.780;7.726;2023-03-31T12:06:14;6.28;;;1.65;;
11823;SDS011;5969;50.780;7.726;2023-03-31T12:09:06;4.10;;;1.38;;
11823;SDS011;5969;50.780;7.726;2023-03-31T12:11:49;3.38;;;1.48;;
11823;SDS011;5969;50.780;7.726;2023-03-31T12:14:26;4.90;;;1.77;;
11823;SDS011;5969;50.780;7.726;2023-03-31T12:16:59;4.05;;;1.60;;
11823;SDS011;5969;50.780;7.726;2023-03-31T12:19:34;6.85;;;2.13;;
11823;SDS011;5969;50.780;7.726;2023-03-31T12:22:07;6.28;;;1.95;;
11823;SDS011;5969;50.780;7.726;2023-03-31T12:24:44;4.95;;;1.80;;
11823;SDS011;5969;50.780;7.726;2023-03-31T12:27:13;6.70;;;2.05;;
11823;SDS011;5969;50.780;7.726;2023-03-31T12:29:47;5.35;;;1.90;;
11823;SDS011;5969;50.780;7.726;2023-03-31T12:32:21;6.85;;;2.10;;
11823;SDS011;5969;50.780;7.726;2023-03-31T12:34:53;6.95;;;2.58;;
11823;SDS011;5969;50.780;7.726;2023-03-31T12:37:34;8.63;;;2.40;;
11823;SDS011;5969;50.780;7.726;2023-03-31T12:40:25;7.72;;;2.53;;
11823;SDS011;5969;50.780;7.726;2023-03-31T12:43:07;7.30;;;2.08;;
11823;SDS011;5969;50.780;7.726;2023-03-31T12:45:48;5.70;;;1.58;;
11823;SDS011;5969;50.780;7.726;2023-03-31T12:48:30;2.20;;;1.10;;
11823;SDS011;5969;50.780;7.726;2023-03-31T12:51:12;3.55;;;1.30;;
11823;SDS011;5969;50.780;7.726;2023-03-31T12:53:49;5.25;;;1.17;;
11823;SDS011;5969;50.780;7.726;2023-03-31T12:59:33;2.22;;;0.98;;
11823;SDS011;5969;50.780;7.726;2023-03-31T13:02:16;3.22;;;1.05;;
11823;SDS011;5969;50.780;7.726;2023-03-31T13:04:48;5.63;;;1.77;;
11823;SDS011;5969;50.780;7.726;2023-03-31T13:10:22;3.85;;;1.50;;
11823;SDS011;5969;50.780;7.726;2023-03-31T13:13:02;1.95;;;1.00;;
11823;SDS011;5969;50.780;7.726;2023-03-31T13:15:33;2.20;;;1.10;;
11823;SDS011;5969;50.780;7.726;2023-03-31T13:18:01;4.68;;;1.10;;
11823;SDS011;5969;50.780;7.726;2023-03-31T13:20:30;3.45;;;1.00;;
11823;SDS011;5969;50.780;7.726;2023-03-31T13:23:06;3.53;;;1.20;;
11823;SDS011;5969;50.780;7.726;2023-03-31T13:25:45;4.78;;;1.17;;
11823;SDS011;5969;50.780;7.726;2023-03-31T13:31:16;1.65;;;0.93;;
11823;SDS011;5969;50.780;7.726;2023-03-31T13:33:44;2.05;;;1.05;;
11823;SDS011;5969;50.780;7.726;2023-03-31T13:36:19;2.33;;;1.25;;
11823;SDS011;5969;50.780;7.726;2023-03-31T13:45:23;2.53;;;1.15;;
11823;SDS011;5969;50.780;7.726;2023-03-31T13:48:14;2.65;;;1.10;;
11823;SDS011;5969;50.780;7.726;2023-03-31T13:50:54;3.85;;;1.33;;
11823;SDS011;5969;50.780;7.726;2023-03-31T13:53:37;3.47;;;1.20;;
11823;SDS011;5969;50.780;7.726;2023-03-31T13:56:22;4.80;;;1.85;;
11823;SDS011;5969;50.780;7.726;2023-03-31T13:59:14;3.30;;;1.38;;
11823;SDS011;5969;50.780;7.726;2023-03-31T14:02:00;3.63;;;1.10;;
11823;SDS011;5969;50.780;7.726;2023-03-31T14:04:59;4.13;;;1.27;;
11823;SDS011;5969;50.780;7.726;2023-03-31T14:07:48;4.95;;;1.50;;
11823;SDS011;5969;50.780;7.726;2023-03-31T14:10:29;5.90;;;1.55;;
11823;SDS011;5969;50.780;7.726;2023-03-31T14:16:09;4.15;;;1.33;;
11823;SDS011;5969;50.780;7.726;2023-03-31T14:18:39;5.40;;;1.40;;
11823;SDS011;5969;50.780;7.726;2023-03-31T14:21:21;4.60;;;1.65;;
11823;SDS011;5969;50.780;7.726;2023-03-31T14:24:05;4.65;;;1.50;;
11823;SDS011;5969;50.780;7.726;2023-03-31T14:26:44;5.60;;;1.90;;
11823;SDS011;5969;50.780;7.726;2023-03-31T14:29:26;7.30;;;2.17;;
11823;SDS011;5969;50.780;7.726;2023-03-31T14:32:03;5.15;;;1.70;;
11823;SDS011;5969;50.780;7.726;2023-03-31T14:34:48;3.58;;;1.33;;
11823;SDS011;5969;50.780;7.726;2023-03-31T14:40:15;4.57;;;1.50;;
11823;SDS011;5969;50.780;7.726;2023-03-31T14:42:54;4.68;;;1.70;;
11823;SDS011;5969;50.780;7.726;2023-03-31T14:48:31;4.13;;;1.60;;
11823;SDS011;5969;50.780;7.726;2023-03-31T14:54:22;4.22;;;1.33;;
11823;SDS011;5969;50.780;7.726;2023-03-31T14:56:57;2.97;;;1.00;;
11823;SDS011;5969;50.780;7.726;2023-03-31T14:59:26;4.60;;;1.40;;
11823;SDS011;5969;50.780;7.726;2023-03-31T15:01:57;3.28;;;1.20;;
11823;SDS011;5969;50.780;7.726;2023-03-31T15:04:27;4.47;;;1.08;;
11823;SDS011;5969;50.780;7.726;2023-03-31T15:06:55;4.97;;;1.30;;
11823;SDS011;5969;50.780;7.726;2023-03-31T15:09:27;6.07;;;1.00;;
11823;SDS011;5969;50.780;7.726;2023-03-31T15:11:56;3.53;;;1.20;;
11823;SDS011;5969;50.780;7.726;2023-03-31T15:14:27;4.18;;;1.00;;
11823;SDS011;5969;50.780;7.726;2023-03-31T15:16:58;4.35;;;1.60;;
11823;SDS011;5969;50.780;7.726;2023-03-31T15:21:58;2.78;;;1.13;;
11823;SDS011;5969;50.780;7.726;2023-03-31T15:24:30;3.20;;;1.00;;
11823;SDS011;5969;50.780;7.726;2023-03-31T15:26:58;2.95;;;1.30;;
11823;SDS011;5969;50.780;7.726;2023-03-31T15:29:30;5.00;;;1.52;;
11823;SDS011;5969;50.780;7.726;2023-03-31T15:32:01;4.57;;;1.30;;
11823;SDS011;5969;50.780;7.726;2023-03-31T15:34:32;3.58;;;1.30;;
11823;SDS011;5969;50.780;7.726;2023-03-31T15:37:01;2.05;;;0.85;;
11823;SDS011;5969;50.780;7.726;2023-03-31T15:39:30;3.78;;;1.45;;
11823;SDS011;5969;50.780;7.726;2023-03-31T15:41:59;2.85;;;1.20;;
11823;SDS011;5969;50.780;7.726;2023-03-31T15:44:37;3.58;;;1.40;;
11823;SDS011;5969;50.780;7.726;2023-03-31T15:47:16;2.05;;;1.15;;
11823;SDS011;5969;50.780;7.726;2023-03-31T15:49:52;3.05;;;0.95;;
11823;SDS011;5969;50.780;7.726;2023-03-31T15:52:26;4.53;;;1.15;;
11823;SDS011;5969;50.780;7.726;2023-03-31T15:54:58;3.88;;;1.30;;
11823;SDS011;5969;50.780;7.726;2023-03-31T15:57:32;4.60;;;1.42;;
11823;SDS011;5969;50.780;7.726;2023-03-31T16:00:00;4.82;;;1.20;;
11823;SDS011;5969;50.780;7.726;2023-03-31T16:02:37;3.38;;;1.13;;
11823;SDS011;5969;50.780;7.726;2023-03-31T16:05:15;2.95;;;1.00;;
11823;SDS011;5969;50.780;7.726;2023-03-31T16:07:50;2.95;;;1.20;;
11823;SDS011;5969;50.780;7.726;2023-03-31T16:10:18;3.78;;;1.20;;
11823;SDS011;5969;50.780;7.726;2023-03-31T16:12:48;4.45;;;1.60;;
11823;SDS011;5969;50.780;7.726;2023-03-31T16:15:20;4.20;;;1.30;;
11823;SDS011;5969;50.780;7.726;2023-03-31T16:17:55;3.00;;;1.00;;
11823;SDS011;5969;50.780;7.726;2023-03-31T16:20:27;4.18;;;1.35;;